createdAt,value
2022-09-02T00:02:26.172Z,12.70
2022-09-02T00:04:54.337Z,12.70
2022-09-02T00:07:22.077Z,12.68
2022-09-02T00:09:50.093Z,12.60
2022-09-02T00:12:17.857Z,12.50
2022-09-02T00:14:45.586Z,12.50
2022-09-02T00:17:13.345Z,12.50
2022-09-02T00:19:41.527Z,12.40
2022-09-02T00:22:09.529Z,12.40
2022-09-02T00:24:37.481Z,12.30
2022-09-02T00:27:05.377Z,12.28
2022-09-02T00:29:33.433Z,12.20
2022-09-02T00:32:01.189Z,12.20
2022-09-02T00:34:29.382Z,12.20
2022-09-02T00:36:57.130Z,12.12
2022-09-02T00:39:26.237Z,12.10
2022-09-02T00:41:54.605Z,12.10
2022-09-02T00:44:22.781Z,12.00
2022-09-02T00:46:50.732Z,11.90
2022-09-02T00:49:35.770Z,11.90
2022-09-02T00:52:13.650Z,11.90
2022-09-02T00:54:51.917Z,11.90
2022-09-02T00:57:24.310Z,12.00
2022-09-02T01:00:20.577Z,12.00
2022-09-02T01:02:53.668Z,11.90
2022-09-02T01:05:27.038Z,11.90
2022-09-02T01:07:56.994Z,11.90
2022-09-02T01:10:30.613Z,11.80
2022-09-02T01:13:07.046Z,11.80
2022-09-02T01:15:44.570Z,11.80
2022-09-02T01:18:24.987Z,11.80
2022-09-02T01:20:52.945Z,11.74
2022-09-02T01:23:21.694Z,11.70
2022-09-02T01:25:49.705Z,11.62
2022-09-02T01:28:20.207Z,11.62
2022-09-02T01:30:54.048Z,11.62
2022-09-02T01:33:25.247Z,11.70
2022-09-02T01:35:55.506Z,11.70
2022-09-02T01:38:25.972Z,11.64
2022-09-02T01:40:53.859Z,11.60
2022-09-02T01:43:27.647Z,11.58
2022-09-02T01:45:57.996Z,11.60
2022-09-02T01:48:26.453Z,11.60
2022-09-02T01:51:01.592Z,11.60
2022-09-02T01:53:31.953Z,11.60
2022-09-02T01:56:00.283Z,11.68
2022-09-02T01:58:28.056Z,11.70
2022-09-02T02:00:55.842Z,11.70
2022-09-02T02:03:25.125Z,11.70
2022-09-02T02:05:53.356Z,11.80
2022-09-02T02:08:23.113Z,11.80
2022-09-02T02:10:50.923Z,11.90
2022-09-02T02:13:18.653Z,11.90
2022-09-02T02:15:46.797Z,12.00
2022-09-02T02:18:14.574Z,12.10
2022-09-02T02:20:44.920Z,12.10
2022-09-02T02:23:13.811Z,12.20
2022-09-02T02:25:41.860Z,12.20
2022-09-02T02:28:10.106Z,12.20
2022-09-02T02:30:38.769Z,12.20
2022-09-02T02:33:06.637Z,12.20
2022-09-02T02:35:35.170Z,12.20
2022-09-02T02:38:04.035Z,12.30
2022-09-02T02:40:33.442Z,12.30
2022-09-02T02:43:01.344Z,12.36
2022-09-02T02:45:29.209Z,12.40
2022-09-02T02:47:57.072Z,12.40
2022-09-02T02:50:25.860Z,12.40
2022-09-02T02:52:56.490Z,12.40
2022-09-02T02:55:25.611Z,12.40
2022-09-02T02:57:53.518Z,12.40
2022-09-02T03:00:29.250Z,12.50
2022-09-02T03:03:00.958Z,12.50
2022-09-02T03:05:30.981Z,12.60
2022-09-02T03:07:58.818Z,12.60
2022-09-02T03:10:27.415Z,12.68
2022-09-02T03:12:55.189Z,12.70
2022-09-02T03:15:23.017Z,12.70
2022-09-02T03:17:50.821Z,12.70
2022-09-02T03:20:19.668Z,12.70
2022-09-02T03:22:50.601Z,12.70
2022-09-02T03:25:21.749Z,12.80
2022-09-02T03:27:50.358Z,12.80
2022-09-02T03:30:27.326Z,12.80
2022-09-02T03:33:03.773Z,12.80
2022-09-02T03:35:39.034Z,12.80
2022-09-02T03:38:07.912Z,12.80
2022-09-02T03:40:37.320Z,12.80
2022-09-02T03:43:05.595Z,12.80
2022-09-02T03:45:33.462Z,12.90
2022-09-02T03:48:01.384Z,12.90
2022-09-02T03:50:36.541Z,12.90
2022-09-02T03:53:07.042Z,12.90
2022-09-02T03:55:40.478Z,12.90
2022-09-02T03:58:08.785Z,12.90
2022-09-02T04:00:38.543Z,12.90
2022-09-02T04:03:07.864Z,12.90
2022-09-02T04:05:35.820Z,12.90
2022-09-02T04:08:03.947Z,12.86
2022-09-02T04:10:32.062Z,12.86
2022-09-02T04:12:59.788Z,12.80
2022-09-02T04:15:27.536Z,12.86
2022-09-02T04:17:56.799Z,12.90
2022-09-02T04:20:26.152Z,12.90
2022-09-02T04:22:53.927Z,13.00
2022-09-02T04:25:24.144Z,13.00
2022-09-02T04:27:55.681Z,13.00
2022-09-02T04:30:25.407Z,13.08
2022-09-02T04:32:53.628Z,13.10
2022-09-02T04:35:21.553Z,13.10
2022-09-02T04:37:49.396Z,13.02
2022-09-02T04:40:17.857Z,13.10
2022-09-02T04:42:47.372Z,13.10
2022-09-02T04:45:15.218Z,13.20
2022-09-02T04:47:43.304Z,13.20
2022-09-02T04:50:14.213Z,13.20
2022-09-02T04:52:43.150Z,13.20
2022-09-02T04:55:11.317Z,13.20
2022-09-02T04:57:39.511Z,13.20
2022-09-02T05:00:09.239Z,13.20
2022-09-02T05:02:37.250Z,13.20
2022-09-02T05:05:06.869Z,13.26
2022-09-02T05:07:38.561Z,13.26
2022-09-02T05:10:08.381Z,13.30
2022-09-02T05:12:36.568Z,13.30
2022-09-02T05:15:05.814Z,13.30
2022-09-02T05:17:35.722Z,13.30
2022-09-02T05:20:07.321Z,13.30
2022-09-02T05:22:37.497Z,13.30
2022-09-02T05:25:09.714Z,13.40
2022-09-02T05:27:39.020Z,13.40
2022-09-02T05:30:08.108Z,13.40
2022-09-02T05:32:38.020Z,13.40
2022-09-02T05:35:06.645Z,13.40
2022-09-02T05:37:35.834Z,13.40
2022-09-02T05:40:05.876Z,13.42
2022-09-02T05:42:35.624Z,13.50
2022-09-02T05:45:04.517Z,13.50
2022-09-02T05:47:35.429Z,13.50
2022-09-02T05:50:04.980Z,13.50
2022-09-02T05:52:35.733Z,13.50
2022-09-02T05:55:04.249Z,13.50
2022-09-02T05:57:32.094Z,13.50
2022-09-02T05:59:59.904Z,13.50
2022-09-02T06:02:27.771Z,13.52
2022-09-02T06:04:55.987Z,13.60
2022-09-02T06:07:26.492Z,13.60
2022-09-02T06:09:55.342Z,13.60
2022-09-02T06:12:23.639Z,13.60
2022-09-02T06:14:51.437Z,13.70
2022-09-02T06:17:19.376Z,13.70
2022-09-02T06:19:47.431Z,13.70
2022-09-02T06:22:15.747Z,13.70
2022-09-02T06:24:43.565Z,13.72
2022-09-02T06:27:11.299Z,13.72
2022-09-02T06:29:39.129Z,13.80
2022-09-02T06:32:06.871Z,13.80
2022-09-02T06:34:35.357Z,13.80
2022-09-02T06:37:03.268Z,13.80
2022-09-02T06:39:31.529Z,13.80
2022-09-02T06:41:59.702Z,13.80
2022-09-02T06:44:27.509Z,13.82
2022-09-02T06:46:58.829Z,13.90
2022-09-02T06:49:28.953Z,13.90
2022-09-02T06:51:58.133Z,13.90
2022-09-02T06:54:26.430Z,13.90
2022-09-02T06:56:54.806Z,13.90
2022-09-02T06:59:23.449Z,13.90
2022-09-02T07:01:51.840Z,13.90
2022-09-02T07:04:38.614Z,13.90
2022-09-02T07:07:08.569Z,13.90
2022-09-02T07:09:36.555Z,13.90
2022-09-02T07:12:05.713Z,13.90
2022-09-02T07:14:43.824Z,13.90
2022-09-02T07:17:21.898Z,13.90
2022-09-02T07:19:51.202Z,13.88
2022-09-02T07:22:19.100Z,13.86
2022-09-02T07:24:47.649Z,13.80
2022-09-02T07:27:15.389Z,13.80
2022-09-02T07:29:44.407Z,13.80
2022-09-02T07:32:12.312Z,13.80
2022-09-02T07:34:40.125Z,13.80
2022-09-02T07:37:10.882Z,13.80
2022-09-02T07:39:39.261Z,13.80
2022-09-02T07:42:07.675Z,13.80
2022-09-02T07:44:37.228Z,13.82
2022-09-02T07:47:06.991Z,13.88
2022-09-02T07:52:22.558Z,13.90
2022-09-02T07:54:50.333Z,13.92
2022-09-02T07:57:18.172Z,14.00
2022-09-02T07:59:47.907Z,14.00
2022-09-02T08:02:18.047Z,14.00
2022-09-02T08:04:46.529Z,14.00
2022-09-02T08:07:14.544Z,14.00
2022-09-02T08:09:42.361Z,14.00
2022-09-02T08:12:10.290Z,14.10
2022-09-02T08:14:38.054Z,14.10
2022-09-02T08:17:05.936Z,14.10
2022-09-02T08:19:34.485Z,14.20
2022-09-02T08:22:06.730Z,14.20
2022-09-02T08:24:34.490Z,14.20
2022-09-02T08:27:02.624Z,14.20
2022-09-02T08:29:31.365Z,14.20
2022-09-02T08:31:59.202Z,14.30
2022-09-02T08:34:27.011Z,14.30
2022-09-02T08:36:56.689Z,14.30
2022-09-02T08:39:26.215Z,14.32
2022-09-02T08:42:27.855Z,14.40
2022-09-02T08:45:21.844Z,14.40
2022-09-02T08:48:08.283Z,14.40
2022-09-02T08:50:40.149Z,14.42
2022-09-02T08:53:36.631Z,14.42
2022-09-02T08:56:10.641Z,14.50
2022-09-02T08:58:47.103Z,14.50
2022-09-02T09:01:31.293Z,14.50
2022-09-02T09:04:31.253Z,14.60
2022-09-02T09:07:52.523Z,14.60
2022-09-02T09:10:47.481Z,14.60
2022-09-02T09:13:52.565Z,14.60
2022-09-02T09:16:41.687Z,14.60
2022-09-02T09:19:12.694Z,14.60
2022-09-02T09:21:43.601Z,14.60
2022-09-02T09:24:38.518Z,14.60
2022-09-02T09:27:13.538Z,14.60
2022-09-02T09:29:42.457Z,14.60
2022-09-02T09:32:28.627Z,14.60
2022-09-02T09:35:04.625Z,14.60
2022-09-02T09:37:42.132Z,14.60
2022-09-02T09:40:25.142Z,14.60
2022-09-02T09:43:15.777Z,14.64
2022-09-02T09:45:50.098Z,14.60
2022-09-02T09:48:18.190Z,14.60
2022-09-02T09:50:57.285Z,14.66
2022-09-02T09:53:35.101Z,14.68
2022-09-02T09:56:15.696Z,14.70
2022-09-02T09:58:47.015Z,14.70
2022-09-02T10:01:25.923Z,14.76
2022-09-02T10:04:02.406Z,14.80
2022-09-02T10:06:30.888Z,14.80
2022-09-02T10:09:06.159Z,14.80
2022-09-02T10:11:37.745Z,14.80
2022-09-02T10:14:10.369Z,14.80
2022-09-02T10:16:50.552Z,14.80
2022-09-02T10:19:44.586Z,14.80
2022-09-02T10:23:06.998Z,14.80
2022-09-02T10:26:27.887Z,14.82
2022-09-02T10:29:24.770Z,14.84
2022-09-02T10:32:30.398Z,14.90
2022-09-02T10:35:45.808Z,14.90
2022-09-02T10:38:41.886Z,15.00
2022-09-02T10:41:32.015Z,15.00
2022-09-02T10:44:33.023Z,15.02
2022-09-02T10:47:19.863Z,15.10
2022-09-02T10:50:02.983Z,15.20
2022-09-02T10:52:58.253Z,15.30
2022-09-02T10:56:00.424Z,15.40
2022-09-02T10:59:12.573Z,15.60
2022-09-02T11:01:58.623Z,15.70
2022-09-02T11:04:37.614Z,15.80
2022-09-02T11:07:17.393Z,15.90
2022-09-02T11:09:54.682Z,16.00
2022-09-02T11:12:52.654Z,16.10
2022-09-02T11:15:23.901Z,16.10
2022-09-02T11:20:55.766Z,16.30
2022-09-02T11:23:47.585Z,16.46
2022-09-02T11:26:56.364Z,16.60
2022-09-02T11:30:01.077Z,16.72
2022-09-02T11:32:44.206Z,17.00
2022-09-02T11:35:26.902Z,17.10
2022-09-02T11:38:01.693Z,17.20
2022-09-02T11:40:44.629Z,17.30
2022-09-02T11:43:38.849Z,17.38
2022-09-02T11:47:11.429Z,17.36
2022-09-02T11:49:41.775Z,17.50
2022-09-02T11:52:25.086Z,17.50
2022-09-02T11:55:29.014Z,17.60
2022-09-02T11:57:59.241Z,17.70
2022-09-02T12:00:58.381Z,17.80
2022-09-02T12:03:55.991Z,17.82
2022-09-02T12:06:21.455Z,17.90
2022-09-02T12:08:50.724Z,17.90
2022-09-02T12:11:39.769Z,17.90
2022-09-02T12:14:13.826Z,17.90
2022-09-02T12:17:00.677Z,18.00
2022-09-02T12:19:39.733Z,18.00
2022-09-02T12:22:27.411Z,18.00
2022-09-02T12:24:57.725Z,18.00
2022-09-02T12:27:38.372Z,18.08
2022-09-02T12:30:15.761Z,18.10
2022-09-02T12:32:48.710Z,18.20
2022-09-02T12:35:36.354Z,18.22
2022-09-02T12:38:11.234Z,18.40
2022-09-02T12:40:53.345Z,18.64
2022-09-02T12:43:31.273Z,18.80
2022-09-02T12:46:24.897Z,18.80
2022-09-02T12:49:05.501Z,19.04
2022-09-02T12:52:01.465Z,19.40
2022-09-02T12:54:49.416Z,19.52
2022-09-02T12:57:19.436Z,19.46
2022-09-02T12:59:48.297Z,19.40
2022-09-02T13:02:44.672Z,19.40
2022-09-02T13:05:26.889Z,19.40
2022-09-02T13:08:39.095Z,19.36
2022-09-02T13:11:32.258Z,19.22
2022-09-02T13:14:15.435Z,19.30
2022-09-02T13:17:37.111Z,19.32
2022-09-02T13:20:38.832Z,19.30
2022-09-02T13:23:48.806Z,19.40
2022-09-02T13:26:49.209Z,19.60
2022-09-02T13:30:11.230Z,19.90
2022-09-02T13:32:39.353Z,20.00
2022-09-02T13:35:21.496Z,20.00
2022-09-02T13:38:01.162Z,20.30
2022-09-02T13:40:36.254Z,20.50
2022-09-02T13:43:12.785Z,20.60
2022-09-02T13:45:41.836Z,20.76
2022-09-02T13:48:27.058Z,20.94
2022-09-02T13:51:09.874Z,21.00
2022-09-02T13:54:11.633Z,21.10
2022-09-02T13:56:35.057Z,21.24
2022-09-02T13:59:02.860Z,21.30
2022-09-02T14:01:35.829Z,21.50
2022-09-02T14:04:11.565Z,21.60
2022-09-02T14:06:44.445Z,21.70
2022-09-02T14:09:36.490Z,21.80
2022-09-02T14:12:07.763Z,21.80
2022-09-02T14:14:37.523Z,21.82
2022-09-02T14:17:21.176Z,21.80
2022-09-02T14:19:50.013Z,21.74
2022-09-02T14:22:29.569Z,21.60
2022-09-02T14:24:57.473Z,21.60
2022-09-02T14:27:25.846Z,21.60
2022-09-02T14:29:58.464Z,21.56
2022-09-02T14:32:28.698Z,21.60
2022-09-02T14:35:23.376Z,21.48
2022-09-02T14:37:59.549Z,21.20
2022-09-02T14:40:39.252Z,21.00
2022-09-02T14:43:16.752Z,20.94
2022-09-02T14:45:50.507Z,21.00
2022-09-02T14:48:21.018Z,20.90
2022-09-02T14:51:02.100Z,20.80
2022-09-02T14:53:31.989Z,20.60
2022-09-02T14:56:00.633Z,20.40
2022-09-02T14:58:29.144Z,20.20
2022-09-02T15:01:02.071Z,20.10
2022-09-02T15:03:31.673Z,19.90
2022-09-02T15:05:59.460Z,19.80
2022-09-02T15:08:27.332Z,19.80
2022-09-02T15:11:01.024Z,19.70
2022-09-02T15:13:34.123Z,19.60
2022-09-02T15:16:03.553Z,19.50
2022-09-02T15:18:31.734Z,19.50
2022-09-02T15:20:59.517Z,19.40
2022-09-02T15:23:32.515Z,19.30
2022-09-02T15:26:02.630Z,19.30
2022-09-02T15:28:30.983Z,19.20
2022-09-02T15:31:01.001Z,19.20
2022-09-02T15:33:30.145Z,19.20
2022-09-02T15:36:13.750Z,19.10
2022-09-02T15:38:41.682Z,19.10
2022-09-02T15:41:11.334Z,19.00
2022-09-02T15:43:39.065Z,18.98
2022-09-02T15:46:24.204Z,18.90
2022-09-02T15:48:55.309Z,18.90
2022-09-02T15:51:25.702Z,18.90
2022-09-02T15:54:07.192Z,18.82
2022-09-02T15:56:38.094Z,18.88
2022-09-02T15:59:17.721Z,18.80
2022-09-02T16:01:49.098Z,18.80
2022-09-02T16:04:18.066Z,18.80
2022-09-02T16:06:49.390Z,18.78
2022-09-02T16:09:18.561Z,18.70
2022-09-02T16:11:53.805Z,18.70
2022-09-02T16:14:24.109Z,18.70
2022-09-02T16:16:55.883Z,18.60
2022-09-02T16:19:29.791Z,18.60
2022-09-02T16:21:59.123Z,18.50
2022-09-02T16:24:27.671Z,18.50
2022-09-02T16:26:55.404Z,18.50
2022-09-02T16:29:27.217Z,18.50
2022-09-02T16:34:46.767Z,18.50
2022-09-02T16:37:14.842Z,18.50
2022-09-02T16:39:42.928Z,18.50
2022-09-02T16:42:11.007Z,18.50
2022-09-02T16:44:41.555Z,18.50
2022-09-02T16:47:09.424Z,18.40
2022-09-02T16:49:41.196Z,18.40
2022-09-02T16:52:11.155Z,18.40
2022-09-02T16:54:40.959Z,18.40
2022-09-02T16:57:09.539Z,18.38
2022-09-02T16:59:37.388Z,18.30
2022-09-02T17:02:05.724Z,18.30
2022-09-02T17:04:33.608Z,18.30
2022-09-02T17:07:01.282Z,18.24
2022-09-02T17:09:29.561Z,18.20
2022-09-02T17:11:57.813Z,18.20
2022-09-02T17:14:25.671Z,18.12
2022-09-02T17:16:53.487Z,18.10
2022-09-02T17:19:22.396Z,18.10
2022-09-02T17:21:53.358Z,18.10
2022-09-02T17:24:28.214Z,18.10
2022-09-02T17:26:56.735Z,18.10
2022-09-02T17:32:20.726Z,18.00
2022-09-02T17:34:50.916Z,18.00
2022-09-02T17:37:20.140Z,18.00
2022-09-02T17:39:49.919Z,18.00
2022-09-02T17:42:18.565Z,17.92
2022-09-02T17:44:46.298Z,17.92
2022-09-02T17:47:22.747Z,17.90
2022-09-02T17:49:51.158Z,17.90
2022-09-02T17:52:23.421Z,17.90
2022-09-02T17:54:53.973Z,17.90
2022-09-02T17:57:42.984Z,17.90
2022-09-02T18:00:16.931Z,17.80
2022-09-02T18:03:02.811Z,17.86
2022-09-02T18:06:08.980Z,17.88
2022-09-02T18:09:01.398Z,17.88
2022-09-02T18:11:30.885Z,17.84
2022-09-02T18:14:23.701Z,17.84
2022-09-02T18:17:35.727Z,17.90
2022-09-02T18:20:32.662Z,17.90
2022-09-02T18:23:19.594Z,17.80
2022-09-02T18:26:29.794Z,17.80
2022-09-02T18:29:54.317Z,17.80
2022-09-02T18:32:53.081Z,17.80
2022-09-02T18:35:27.845Z,17.80
2022-09-02T18:38:20.309Z,17.80
2022-09-02T18:41:08.488Z,17.78
2022-09-02T18:43:57.543Z,17.80
2022-09-02T18:46:34.368Z,17.80
2022-09-02T18:49:06.634Z,17.80
2022-09-02T18:51:45.020Z,17.78
2022-09-02T18:54:26.803Z,17.70
2022-09-02T18:57:05.187Z,17.70
2022-09-02T18:59:40.834Z,17.70
2022-09-02T19:02:48.566Z,17.70
2022-09-02T19:05:27.841Z,17.66
2022-09-02T19:08:30.168Z,17.62
2022-09-02T19:11:17.132Z,17.60
2022-09-02T19:13:53.056Z,17.60
2022-09-02T19:16:27.220Z,17.60
2022-09-02T19:18:55.578Z,17.60
2022-09-02T19:21:46.243Z,17.60
2022-09-02T19:24:25.522Z,17.60
2022-09-02T19:27:01.872Z,17.60
2022-09-02T19:29:33.634Z,17.50
2022-09-02T19:32:02.140Z,17.50
2022-09-02T19:34:37.399Z,17.50
2022-09-02T19:37:06.415Z,17.50
2022-09-02T19:39:35.275Z,17.50
2022-09-02T19:42:03.944Z,17.48
2022-09-02T19:44:31.713Z,17.40
2022-09-02T19:49:48.120Z,17.40
2022-09-02T19:52:15.866Z,17.36
2022-09-02T19:54:44.477Z,17.30
2022-09-02T19:57:12.441Z,17.30
2022-09-02T19:59:40.417Z,17.30
2022-09-02T20:02:08.511Z,17.30
2022-09-02T20:04:36.677Z,17.30
2022-09-02T20:07:04.448Z,17.30
2022-09-02T20:09:32.180Z,17.30
2022-09-02T20:12:01.135Z,17.28
2022-09-02T20:14:28.861Z,17.20
2022-09-02T20:17:08.038Z,17.20
2022-09-02T20:19:35.853Z,17.20
2022-09-02T20:22:05.105Z,17.20
2022-09-02T20:24:35.039Z,17.20
2022-09-02T20:27:05.598Z,17.20
2022-09-02T20:29:51.358Z,17.18
2022-09-02T20:32:28.316Z,17.10
2022-09-02T20:35:24.670Z,17.10
2022-09-02T20:38:07.706Z,17.10
2022-09-02T20:41:20.361Z,17.00
2022-09-02T20:44:07.352Z,17.00
2022-09-02T20:47:20.266Z,17.00
2022-09-02T20:50:06.849Z,17.00
2022-09-02T20:53:21.846Z,17.00
2022-09-02T20:56:17.347Z,17.00
2022-09-02T20:59:28.895Z,17.00
2022-09-02T21:02:01.795Z,17.00
2022-09-02T21:04:40.270Z,17.00
2022-09-02T21:07:20.938Z,17.00
2022-09-02T21:10:01.585Z,17.00
2022-09-02T21:12:36.994Z,16.92
2022-09-02T21:15:42.933Z,16.90
2022-09-02T21:18:44.651Z,16.90
2022-09-02T21:21:41.800Z,16.90
2022-09-02T21:24:30.814Z,16.86
2022-09-02T21:27:10.442Z,16.80
2022-09-02T21:30:02.808Z,16.80
2022-09-02T21:32:38.386Z,16.80
2022-09-02T21:35:14.440Z,16.80
2022-09-02T21:37:45.924Z,16.80
2022-09-02T21:40:20.317Z,16.80
2022-09-02T21:43:09.982Z,16.80
2022-09-02T21:46:13.404Z,16.80
2022-09-02T21:49:21.397Z,16.80
2022-09-02T21:52:18.341Z,16.70
2022-09-02T21:55:19.403Z,16.70
2022-09-02T21:58:26.454Z,16.60
2022-09-02T22:01:11.827Z,16.60
2022-09-02T22:03:50.843Z,16.54
2022-09-02T22:06:46.110Z,16.50
2022-09-02T22:09:36.154Z,16.50
2022-09-02T22:12:14.785Z,16.40
2022-09-02T22:15:12.273Z,16.32
2022-09-02T22:17:53.354Z,16.28
2022-09-02T22:20:34.469Z,16.18
2022-09-02T22:23:09.270Z,16.10
2022-09-02T22:25:38.306Z,16.00
2022-09-02T22:28:14.522Z,16.00
2022-09-02T22:30:59.885Z,16.00
2022-09-02T22:33:37.706Z,16.00
2022-09-02T22:36:35.109Z,16.00
2022-09-02T22:39:03.746Z,15.90
2022-09-02T22:42:06.386Z,15.90
2022-09-02T22:45:01.158Z,15.90
2022-09-02T22:47:52.000Z,15.80
2022-09-02T22:50:52.521Z,15.80
2022-09-02T22:53:20.497Z,15.80
2022-09-02T22:56:11.636Z,15.80
2022-09-02T22:58:51.430Z,15.80
2022-09-02T23:01:55.607Z,15.80
2022-09-02T23:04:35.827Z,15.80
2022-09-02T23:07:05.402Z,15.70
2022-09-02T23:09:37.909Z,15.60
2022-09-02T23:12:19.764Z,15.42
2022-09-02T23:15:47.965Z,15.38
2022-09-02T23:18:52.992Z,15.30
2022-09-02T23:21:29.102Z,15.20
2022-09-02T23:24:15.933Z,15.16
2022-09-02T23:26:50.223Z,15.10
2022-09-02T23:29:28.905Z,15.10
2022-09-02T23:32:52.119Z,15.10
2022-09-02T23:35:27.187Z,15.10
2022-09-02T23:38:19.795Z,15.10
2022-09-02T23:41:07.179Z,15.10
2022-09-02T23:43:36.630Z,15.10
2022-09-02T23:46:41.434Z,15.10
2022-09-02T23:49:18.377Z,15.18
2022-09-02T23:52:20.714Z,15.20
2022-09-02T23:55:12.051Z,15.20
2022-09-02T23:58:05.354Z,15.20
